Overton, Nevada Weather observations

Data are for observation ending at time listed.
 Day   Time    Ave.   Ave.  Ave.  Vector   Max.   Stn.    Total    Solar   Ave.  
  of    of     Air    Rel.  Wind   Wind    Wind   Baro.  Precip.   Rad.    Soil  
Year   Day     Temp.  Hum.  Speed  Dir.    Gust   Pres.                    Temp. 
2017   (PST)    F      %     mph   deg.    mph     mb.     in.     W/m2     F   
------------------------------------------------------------------------------
 322    7:40   50.6    25    8.3   319     11.6   979.5    0.00     188    59.5
 322    7:50   51.2    24    8.4   322     12.1   979.7    0.00     155    59.4
 322    8:00   51.6    24   10.4   318     15.6   979.9    0.00      67    59.3
 322    8:10   51.8    24    9.9   316     14.7   980.0    0.00     268    59.2
 322    8:20   52.5    23    9.9   312     15.2   980.2    0.00     294    59.2
 322    8:30   53.0    23    9.7   318     14.6   980.2    0.00     319    59.2
 322    8:40   53.3    22   10.1   320     16.6   980.3    0.00     344    59.3
 322    8:50   53.9    22    8.6   322     12.9   980.6    0.00     367    59.4
 322    9:00   54.4    21    8.6   318     13.6   980.5    0.00     389    59.5
 322    9:10   55.3    21    7.2   320     12.8   980.5    0.00     411    59.6
 322    9:20   56.0    20    7.3   313     11.8   980.6    0.00     431    59.8
 322    9:30   56.3    20    7.9   305     13.4   980.7    0.00     449    60.0
 322    9:40   57.1    19    6.3   308     12.1   980.7    0.00     466    60.2
 322    9:50   57.8    18    4.7   303     10.7   980.7    0.00     481    60.4
 322   10:00   58.0    17    5.8   308     11.5   980.7    0.00     493    60.6
 322   10:10   58.4    17    6.1   322     13.2   980.8    0.00     508    60.9
 322   10:20   59.3    16    6.9   325     12.3   980.6    0.00     521    61.1
 322   10:30   59.6    16    6.0   334     10.4   980.5    0.00     532    61.4
 322   10:40   60.1    15    6.7   334     11.1   980.3    0.00     540    61.7
 322   10:50   60.5    16    5.9    11     11.2   980.2    0.00     546    62.0
 322   11:00   61.3    16    6.1    39     11.2   980.1    0.00     553    62.3
 322   11:10   61.1    15    6.5     4     14.9   980.0    0.00     557    62.6
 322   11:20   61.8    15    5.5    17     12.6   979.9    0.00     559    63.0
 322   11:30   62.4    14    6.0    21     10.4   979.7    0.00     561    63.3
 322   11:40   62.6    14    5.5    17     11.8   979.5    0.00     559    63.6
 322   11:50   62.7    14    7.1   352     12.0   979.3    0.00     557    63.9
 322   12:00   63.1    13    6.1   358     10.4   979.1    0.00     554    64.1
 322   12:10   63.9    13    7.8     4     13.4   978.9    0.00     548    64.4
 322   12:20   63.9    13    5.6   358      9.1   978.7    0.00     540    64.7
 322   12:30   64.1    13    7.8     2     13.1   978.6    0.00     531    65.0
 322   12:40   64.3    13    7.9     8     15.8   978.5    0.00     521    65.2
 322   12:50   65.1    13    8.2   360     14.1   978.1    0.00     508    65.5
 322   13:00   64.7    13    9.3   345     16.1   977.9    0.00     495    65.7
 322   13:10   64.3    12    6.4   333     11.8   977.8    0.00     479    66.0
 322   13:20   64.6    13    4.2   322      8.6   977.6    0.00     463    66.2
 322   13:30   64.9    12    7.0   321     11.0   977.5    0.00     444    66.4
 322   13:40   65.2    12    6.2    16     10.8   977.5    0.00     425    66.6
 322   13:50   65.2    13    7.0    20     12.9   977.3    0.00     404    66.8
 322   14:00   65.4    13    7.3    15     12.0   977.2    0.00     382    66.9
 322   14:10   65.4    13    4.8   356     11.2   977.1    0.00     361    67.1
 322   14:20   65.7    12    6.8   354     14.3   977.0    0.00     337    67.2
 322   14:30   65.5    12    7.0   343     11.0   977.0    0.00     313    67.3
 322   14:40   65.2    12    5.3   313     11.2   976.9    0.00     287    67.5
 322   14:50   64.8    12    5.3   325      8.3   976.5    0.00     183    67.6
 322   15:00   64.6    12    6.6   310     10.0   976.2    0.00     221    67.7
 322   15:10   64.4    12    7.0   314     10.2   975.9    0.00     207    67.7
 322   15:20   64.3    12    5.4   298      9.8   975.9    0.00     154    67.8
 322   15:30   64.2    12    6.6   308      9.7   975.7    0.00      35    67.8
 322   15:40   64.0    12    4.6   293      9.0   975.6    0.00      39    67.9
 322   15:50   63.7    12    4.6   306      7.8   975.5    0.00      42    67.9
 322   16:00   63.2    12    4.6   314     11.8   975.5    0.00      23    67.8
 322   16:10   61.9    14    3.8   328      6.1   975.5    0.00      38    67.7
 322   16:20   60.5    14    3.6   332      4.5   975.3    0.00      13    67.6
 322   16:30   59.4    16    1.4   330      3.7   975.1    0.00       6    67.5
 322   16:40   58.1    17    1.7   344      2.6   974.9    0.00       3    67.4
 322   16:50   56.1    20    1.0   343      2.3   974.7    0.00       0    67.3
 322   17:00   56.1    19    0.7   341      1.6   974.7    0.00       0    67.2
 322   17:10   55.7    20    0.5   298      1.6   974.7    0.00       0    67.0
 322   17:20   54.7    22    0.4   250      1.8   974.7    0.00       0    66.8
 322   17:30   52.2    22    0.2     4      1.4   974.6    0.00       0    66.7
 322   17:40   51.6    24    0.7   252      2.0   974.5    0.00       0    66.5
 322   17:50   51.3    23    0.8   287      2.2   974.4    0.00       0    66.3
 322   18:00   49.1    25    0.4   333      1.8   974.4    0.00       0    66.1
 322   18:10   49.5    25    0.5   337      1.5   974.3    0.00       0    65.8
 322   18:20   48.5    25    0.8   302      2.1   974.2    0.00       0    65.7
 322   18:30   45.7    28    0.4   314      1.4   974.1    0.00       0    65.4
 322   18:40   46.7    27    0.0   298      1.5   974.1    0.00       0    65.3
 322   18:50   44.8    30    1.4   324      2.5   974.1    0.00       0    65.0
 322   19:00   44.0    32    1.6   350      2.7   974.1    0.00       0    64.8
 322   19:10   44.1    32    0.4   352      1.7   974.1    0.00       0    64.6
 322   19:20   43.9    33    0.0     0      0.0   974.1    0.00       0    64.4
 322   19:30   45.0    31    0.3   209      1.8   974.1    0.00       0    64.1
 322   19:40   43.2    31    0.1   248      1.0   974.1    0.00       0    64.0
 322   19:50   42.4    31    0.5   282      2.1   974.2    0.00       0    63.8
 322   20:00   41.4    32    0.8   292      2.6   974.1    0.00       0    63.5
 322   20:10   43.4    28    0.9   256      3.0   974.2    0.00       0    63.3
 322   20:20   44.1    26    1.9   265      3.7   974.2    0.00       0    63.1
 322   20:30   45.1    26    3.9   331      6.9   974.3    0.00       0    62.9
 322   20:40   45.1    26    2.8   304      4.1   974.3    0.00       0    62.7
 322   20:50   45.9    24    2.5   294      4.4   974.3    0.00       0    62.5
 322   21:00   46.3    24    1.6   273      3.1   974.4    0.00       0    62.3
 322   21:10   46.2    24    1.0   281      3.2   974.5    0.00       0    62.1
 322   21:20   45.1    25    1.2   286      3.7   974.5    0.00       0    61.9
 322   21:30   45.9    24    1.4   274      3.4   974.5    0.00       0    61.8
 322   21:40   44.6    25    1.1   287      4.1   974.4    0.00       0    61.6
 322   21:50   45.0    24    3.4   297      4.8   974.4    0.00       0    61.4
 322   22:00   44.6    24    2.8   295      5.0   974.3    0.00       0    61.2
 322   22:10   43.9    24    2.7   300      4.5   974.4    0.00       0    61.0
 322   22:20   41.3    27    3.9   313      5.3   974.3    0.00       0    60.9
 322   22:30   41.1    28    4.6   314      6.6   974.2    0.00       0    60.7
 322   22:40   41.7    27    5.6   320      8.0   974.2    0.00       0    60.6
 322   22:50   41.6    28    6.3   328      8.1   974.1    0.00       0    60.4
 322   23:00   41.5    28    5.5   323      7.2   974.1    0.00       0    60.3
 322   23:10   41.2    28    3.3   312      5.3   974.3    0.00       0    60.1
 322   23:20   42.8    26    2.6   288      5.2   974.3    0.00       0    60.0
 322   23:30   43.2    26    2.5   287      5.0   974.2    0.00       0    59.8
 322   23:40   42.8    27    1.6   283      4.2   974.2    0.00       0    59.7
 322   23:50   42.4    27    1.8   268      3.7   974.1    0.00       0    59.5
 323    0:00   41.9    28    1.0   288      2.9   974.1    0.00       0    59.4
 323    0:10   42.2    27    1.1   275      3.2   974.2    0.00       0    59.3
 323    0:20   42.8    26    1.3   288      3.9   974.2    0.00       0    59.1
 323    0:30   41.1    28    2.3   313      4.6   974.2    0.00       0    59.0
 323    0:40   41.5    27    5.0   299      7.0   974.1    0.00       0    58.9
 323    0:50   42.7    25    5.0   289      8.8   974.0    0.00       0    58.7
 323    1:00   43.5    24    4.7   300      7.9   974.0    0.00       0    58.6
 323    1:10   42.6    25    5.8   307      8.6   974.0    0.00       0    58.5
 323    1:20   42.4    25    5.7   310      8.5   974.1    0.00       0    58.3
 323    1:30   42.2    26    5.3   310      7.2   974.0    0.00       0    58.2
 323    1:40   41.9    26    5.7   310      8.0   974.0    0.00       0    58.1
 323    1:50   42.1    26    6.0   307      9.2   974.0    0.00       0    58.0
 323    2:00   41.2    27    3.6   334      6.1   974.0    0.00       0    57.9
 323    2:10   39.8    30    5.6   333      7.7   974.0    0.00       0    57.8
 323    2:20   39.2    30    5.0   321      6.7   973.8    0.00       0    57.7
 323    2:30   39.8    29    4.4   299      6.4   973.7    0.00       0    57.6
 323    2:40   40.3    28    4.4   302      6.9   973.6    0.00       0    57.5
 323    2:50   39.9    29    4.0   305      6.7   973.5    0.00       0    57.4
 323    3:00   39.9    28    4.6   305      6.3   973.5    0.00       0    57.3
 323    3:10   40.1    28    3.6   298      5.6   973.5    0.00       0    57.2
 323    3:20   40.0    28    2.7   277      5.3   973.5    0.00       0    57.1
 323    3:30   40.5    27    2.5   282      5.5   973.3    0.00       0    56.9
 323    3:40   40.4    27    3.0   280      5.6   973.3    0.00       0    56.9
 323    3:50   40.3    27    2.9   285      6.9   973.3    0.00       0    56.7
 323    4:00   40.3    27    2.6   268      4.7   973.1    0.00       0    56.6
 323    4:10   40.8    26    2.3   264      5.2   973.0    0.00       0    56.5
 323    4:20   40.6    26    1.9   276      4.3   973.0    0.00       0    56.4
 323    4:30   40.5    26    3.1   280      5.4   973.0    0.00       0    56.4
 323    4:40   40.4    26    2.5   283      4.9   973.0    0.00       0    56.2
 323    4:50   40.2    27    2.5   282      5.5   973.0    0.00       0    56.1
 323    5:00   40.5    26    3.5   288      6.9   973.0    0.00       0    56.0
 323    5:10   40.2    27    2.7   286      5.8   973.0    0.00       0    55.9
 323    5:20   40.4    27    2.0   283      4.4   973.1    0.00       0    55.9
 323    5:30   40.0    28    3.7   293      6.7   973.1    0.00       0    55.7
 323    5:40   39.8    28    2.1   290      5.4   973.1    0.00       0    55.7
 323    5:50   39.9    28    2.5   287      5.6   973.1    0.00       0    55.6
 323    6:00   39.4    29    2.0   278      6.2   973.1    0.00       0    55.5
 323    6:10   39.4    29    2.1   274      5.0   973.1    0.00       0    55.4
 323    6:20   39.2    29    2.5   285      5.1   973.3    0.00       2    55.3
 323    6:30   39.0    29    2.4   290      5.5   973.4    0.00       6    55.2
 323    6:40   38.6    30    4.1   292      7.5   973.5    0.00      11    55.1
 323    6:50   38.6    30    3.5   298      5.6   973.7    0.00      14    55.0
 323    7:00   39.0    30    3.2   298      5.0   974.0    0.00      56    54.9
 323    7:10   40.2    29    2.0   291      4.2   973.9    0.00      45    54.8
 323    7:20   42.1    27    1.6   295      4.3   973.9    0.00      65    54.8
 323    7:30   44.0    26    1.1   274      5.3   974.1    0.00     157    54.7

Return to Overton, Nevada graphs page.


Western Regional Climate Center,wrcc@dri.edu